KBNA/BNA METAR and TAF weather

Enter ICAO airport designator
Station Type Date Time Source
KBNA METAR 2021/01/27 12:53 UTC NOAA

KBNA 271253Z 03006KT 10SM FEW130 02/M03 A3009 RMK AO2 SLP189 T00171028 $


Station Type Date Time Source
KBNA Decoded METAR 2021/01/27 12:53 UTC NOAA

NASHVILLE INTERNATIONAL AIRPORT, TN, United States (KBNA) 36-07N 086-41W 210M
Jan 27, 2021 - 07:53 AM EST / 2021.01.27 1253 UTC
Wind: from the NNE (030 degrees) at 7 MPH (6 KT):0
Visibility: 10 mile(s):0
Sky conditions: mostly clear
Temperature: 35.1 F (1.7 C)
Dew Point: 27.0 F (-2.8 C)
Relative Humidity: 71%
Pressure (altimeter): 30.09 in. Hg (1018 hPa)
ob: KBNA 271253Z 03006KT 10SM FEW130 02/M03 A3009 RMK AO2 SLP189 T00171028
cycle: 13

Station Type Date Time Source
KBNA TAF 2021/01/27 12:22 UTC NOAA

TAF KBNA 271120Z 2712/2812 03007KT P6SM SCT120
FM271800 34010KT P6SM VCSH SCT015 BKN035
TEMPO 2719/2722 3SM -SNRA BKN015
FM272200 34014KT 4SM -SN OVC009
FM280200 34014KT P6SM OVC025
TEMPO 2802/2804 -SN
FM280600 34012KT P6SM BKN040

Example: see airport list